Time;durP1;ratioP1;P1;durP2;ratioP2;P2;SDS_P1;SDS_P2;PMS_P1;PMS_P2;Temp;Humidity;BMP_temperature;BMP_pressure;BME280_temperature;BME280_humidity;BME280_pressure;Samples;Min_cycle;Max_cycle;Signal;HPM_P1;HPM_P2
2024/01/17 00:00:58;;;;;;;11.45;4.43;;;;;;;;;;4955688;29;20034;-79
2024/01/17 00:03:23;;;;;;;13.77;4.43;;;;;;;;;;4934181;29;20267;-78
2024/01/17 00:05:49;;;;;;;14.70;5.45;;;;;;;;;;4939848;29;20043;-79
2024/01/17 00:08:14;;;;;;;13.43;5.00;;;;;;;;;;4960991;29;20027;-78
2024/01/17 00:10:40;;;;;;;8.98;3.90;;;;;;;;;;4941563;29;20023;-78
2024/01/17 00:13:05;;;;;;;10.38;4.60;;;;;;;;;;4943520;29;20034;-79
2024/01/17 00:15:31;;;;;;;12.10;5.28;;;;;;;;;;4947598;29;20034;-78
2024/01/17 00:17:57;;;;;;;8.73;4.05;;;;;;;;;;4946333;29;20080;-78
2024/01/17 00:20:23;;;;;;;15.45;4.90;;;;;;;;;;4946569;29;20044;-79
2024/01/17 00:22:49;;;;;;;12.00;4.63;;;;;;;;;;4942683;29;20119;-81
2024/01/17 00:25:15;;;;;;;12.63;4.65;;;;;;;;;;4981789;28;20053;-79
2024/01/17 00:27:42;;;;;;;15.05;4.70;;;;;;;;;;4965996;28;20036;-79
2024/01/17 00:30:07;;;;;;;12.75;4.88;;;;;;;;;;4950736;28;20035;-80
2024/01/17 00:32:34;;;;;;;11.32;4.65;;;;;;;;;;4949842;28;20107;-79
2024/01/17 00:35:02;;;;;;;9.82;4.88;;;;;;;;;;4956062;28;20039;-77
2024/01/17 00:37:29;;;;;;;13.17;4.70;;;;;;;;;;4963174;29;20108;-79
2024/01/17 00:39:55;;;;;;;15.00;4.65;;;;;;;;;;4929668;29;20047;-79
2024/01/17 00:42:20;;;;;;;10.23;4.43;;;;;;;;;;4927764;29;20024;-79
2024/01/17 00:44:46;;;;;;;12.25;4.65;;;;;;;;;;4928993;29;20027;-79
2024/01/17 00:47:12;;;;;;;13.82;4.78;;;;;;;;;;4922687;29;20046;-79
2024/01/17 00:49:39;;;;;;;12.70;4.30;;;;;;;;;;4931142;29;20043;-79
2024/01/17 00:52:05;;;;;;;11.55;5.13;;;;;;;;;;4920287;29;20027;-79
2024/01/17 00:54:30;;;;;;;12.70;5.57;;;;;;;;;;4909909;29;20027;-78
2024/01/17 00:56:58;;;;;;;19.55;4.68;;;;;;;;;;4944951;29;20127;-79
2024/01/17 00:59:23;;;;;;;12.17;5.27;;;;;;;;;;4926686;29;20079;-80
2024/01/17 01:01:49;;;;;;;13.77;5.18;;;;;;;;;;4907420;29;20039;-78
2024/01/17 01:04:16;;;;;;;12.57;4.93;;;;;;;;;;4919136;29;20098;-78
2024/01/17 01:06:43;;;;;;;9.63;4.60;;;;;;;;;;5028525;23;20054;-81
2024/01/17 01:09:09;;;;;;;14.82;4.55;;;;;;;;;;4936964;28;20042;-84
2024/01/17 01:11:36;;;;;;;8.97;4.27;;;;;;;;;;4969106;28;20023;-84
2024/01/17 01:14:02;;;;;;;14.87;5.20;;;;;;;;;;4947291;28;20026;-84
2024/01/17 01:16:28;;;;;;;11.40;5.23;;;;;;;;;;4945905;28;20129;-84
2024/01/17 01:18:54;;;;;;;15.30;4.93;;;;;;;;;;4938654;28;20043;-83
2024/01/17 01:21:20;;;;;;;16.23;5.57;;;;;;;;;;4935540;28;20039;-84
2024/01/17 01:23:47;;;;;;;12.05;5.13;;;;;;;;;;4936400;28;20071;-84
2024/01/17 01:26:14;;;;;;;12.73;4.50;;;;;;;;;;4909612;29;20521;-84
2024/01/17 01:28:40;;;;;;;16.50;4.77;;;;;;;;;;4935160;28;20043;-84
2024/01/17 01:31:09;;;;;;;11.13;4.90;;;;;;;;;;4951147;28;20500;-84
2024/01/17 01:33:36;;;;;;;12.10;4.67;;;;;;;;;;4947334;28;20042;-84
2024/01/17 01:36:01;;;;;;;11.33;5.03;;;;;;;;;;4914361;29;20031;-84
2024/01/17 01:38:27;;;;;;;11.33;4.83;;;;;;;;;;4931213;28;20457;-84
2024/01/17 01:40:54;;;;;;;14.55;4.82;;;;;;;;;;4959037;28;20410;-83
2024/01/17 01:43:22;;;;;;;17.23;4.23;;;;;;;;;;4964657;28;20034;-83
2024/01/17 01:46:17;;;;;;;12.57;4.57;;;;;;;;;;4932473;28;20165;-83
2024/01/17 01:48:43;;;;;;;14.23;5.57;;;;;;;;;;4869063;29;20544;-83
2024/01/17 01:51:10;;;;;;;12.98;4.50;;;;;;;;;;4836337;29;20037;-83
2024/01/17 01:53:37;;;;;;;9.77;4.37;;;;;;;;;;4852885;29;20034;-83
2024/01/17 01:56:04;;;;;;;13.20;4.10;;;;;;;;;;4864114;29;20037;-83
2024/01/17 01:58:31;;;;;;;11.50;5.43;;;;;;;;;;4849239;29;20540;-83
2024/01/17 02:00:56;;;;;;;13.80;4.53;;;;;;;;;;4857482;29;21026;-83
2024/01/17 02:03:23;;;;;;;12.33;4.17;;;;;;;;;;4860271;29;20044;-83
2024/01/17 02:05:49;;;;;;;13.63;4.72;;;;;;;;;;4857641;29;20048;-83
2024/01/17 02:08:15;;;;;;;15.52;4.18;;;;;;;;;;4857807;29;20088;-81
2024/01/17 02:10:41;;;;;;;11.50;4.07;;;;;;;;;;4837401;29;20033;-83
2024/01/17 02:13:07;;;;;;;11.33;4.97;;;;;;;;;;4867230;29;20539;-82
2024/01/17 02:15:33;;;;;;;11.83;5.00;;;;;;;;;;4874475;29;20033;-83
2024/01/17 02:17:59;;;;;;;10.93;4.00;;;;;;;;;;4839446;29;20562;-83
2024/01/17 02:20:25;;;;;;;12.23;4.70;;;;;;;;;;4869125;29;20461;-84
2024/01/17 02:22:50;;;;;;;11.00;4.70;;;;;;;;;;4893266;29;20029;-82
2024/01/17 02:25:16;;;;;;;19.23;4.73;;;;;;;;;;4887493;28;20047;-84
2024/01/17 02:27:42;;;;;;;18.03;4.93;;;;;;;;;;4926859;28;20430;-84
2024/01/17 02:30:08;;;;;;;11.03;4.33;;;;;;;;;;4948452;28;20031;-83
2024/01/17 02:32:35;;;;;;;10.00;4.60;;;;;;;;;;4933361;29;20023;-83
2024/01/17 02:35:00;;;;;;;13.13;3.83;;;;;;;;;;4937897;28;20023;-83
2024/01/17 02:37:26;;;;;;;11.03;4.07;;;;;;;;;;4914329;28;20042;-83
2024/01/17 02:39:52;;;;;;;14.00;5.03;;;;;;;;;;4931841;28;20042;-83
2024/01/17 02:42:18;;;;;;;11.70;4.70;;;;;;;;;;4936671;28;20451;-83
2024/01/17 02:44:44;;;;;;;10.57;4.87;;;;;;;;;;4929898;28;20039;-83
2024/01/17 02:47:09;;;;;;;9.13;4.00;;;;;;;;;;4930967;28;20049;-83
2024/01/17 02:49:35;;;;;;;11.18;4.20;;;;;;;;;;4931294;28;20035;-83
2024/01/17 02:52:01;;;;;;;13.52;4.03;;;;;;;;;;4916526;29;20039;-83
2024/01/17 02:54:26;;;;;;;14.63;4.40;;;;;;;;;;4947788;28;20034;-83
2024/01/17 02:56:52;;;;;;;10.87;4.37;;;;;;;;;;4945889;28;20034;-84
2024/01/17 02:59:18;;;;;;;12.07;4.60;;;;;;;;;;4946841;28;20401;-84
2024/01/17 03:01:46;;;;;;;11.53;4.67;;;;;;;;;;4924011;29;20031;-83
2024/01/17 03:04:11;;;;;;;10.25;4.45;;;;;;;;;;4922580;29;20047;-83
2024/01/17 03:06:37;;;;;;;13.50;5.37;;;;;;;;;;4927091;29;20074;-83
2024/01/17 03:09:04;;;;;;;11.40;4.23;;;;;;;;;;4936079;28;20528;-83
2024/01/17 03:11:31;;;;;;;10.70;4.43;;;;;;;;;;4933884;28;20101;-83
2024/01/17 03:13:57;;;;;;;13.70;3.93;;;;;;;;;;4933107;28;20039;-83
2024/01/17 03:16:22;;;;;;;11.50;4.73;;;;;;;;;;4919452;29;20509;-83
2024/01/17 03:18:48;;;;;;;11.23;4.03;;;;;;;;;;4942649;29;20051;-83
2024/01/17 03:21:14;;;;;;;13.50;4.70;;;;;;;;;;4936193;28;20548;-83
2024/01/17 03:23:40;;;;;;;10.27;4.20;;;;;;;;;;4926390;29;20027;-83
2024/01/17 03:26:05;;;;;;;14.30;5.07;;;;;;;;;;4922979;28;20081;-82
2024/01/17 03:28:31;;;;;;;10.83;4.20;;;;;;;;;;4944004;28;20022;-83
2024/01/17 03:30:57;;;;;;;13.87;4.80;;;;;;;;;;4949539;29;20055;-83
2024/01/17 03:33:23;;;;;;;11.50;4.77;;;;;;;;;;4937120;28;20038;-83
2024/01/17 03:35:49;;;;;;;12.93;4.00;;;;;;;;;;4965379;29;20115;-83
2024/01/17 03:38:18;;;;;;;9.13;4.30;;;;;;;;;;4949190;29;20031;-83
2024/01/17 03:40:44;;;;;;;9.40;4.40;;;;;;;;;;4935929;29;20106;-83
2024/01/17 03:43:11;;;;;;;15.30;4.23;;;;;;;;;;4916399;28;20054;-83
2024/01/17 03:45:36;;;;;;;10.30;4.03;;;;;;;;;;4947347;28;20454;-83
2024/01/17 03:48:03;;;;;;;9.30;3.87;;;;;;;;;;4925300;28;20034;-83
2024/01/17 03:50:28;;;;;;;11.10;4.27;;;;;;;;;;4902607;29;20480;-83
2024/01/17 03:52:54;;;;;;;8.67;4.37;;;;;;;;;;4934669;28;20086;-83
2024/01/17 03:55:20;;;;;;;12.07;4.43;;;;;;;;;;4923428;29;20035;-83
2024/01/17 03:57:46;;;;;;;12.53;4.73;;;;;;;;;;4928045;29;20101;-83
2024/01/17 04:00:11;;;;;;;12.53;4.20;;;;;;;;;;4935931;29;20080;-83
2024/01/17 04:02:39;;;;;;;11.47;4.47;;;;;;;;;;4932368;29;20114;-83
2024/01/17 04:05:05;;;;;;;9.03;4.27;;;;;;;;;;4912135;29;20078;-83
2024/01/17 04:07:30;;;;;;;12.93;4.30;;;;;;;;;;4925530;28;20048;-82
2024/01/17 04:09:56;;;;;;;12.73;4.33;;;;;;;;;;4923641;28;20537;-83
2024/01/17 04:12:22;;;;;;;9.87;4.37;;;;;;;;;;4960367;28;20027;-83
2024/01/17 04:14:48;;;;;;;14.63;4.63;;;;;;;;;;4927115;29;20032;-83
2024/01/17 04:17:14;;;;;;;11.90;4.30;;;;;;;;;;4919366;28;20023;-83
2024/01/17 04:19:40;;;;;;;9.00;4.13;;;;;;;;;;4947201;28;20046;-83
2024/01/17 04:22:07;;;;;;;12.10;4.37;;;;;;;;;;4929217;29;20036;-83
2024/01/17 04:24:33;;;;;;;13.73;4.60;;;;;;;;;;4947037;28;20368;-83
2024/01/17 04:26:58;;;;;;;9.93;4.23;;;;;;;;;;4920344;28;20074;-83
2024/01/17 04:29:24;;;;;;;11.20;4.43;;;;;;;;;;4943734;29;20038;-83
2024/01/17 04:31:51;;;;;;;11.83;4.47;;;;;;;;;;4932543;29;20034;-83
2024/01/17 04:34:16;;;;;;;11.90;4.27;;;;;;;;;;4935686;29;20058;-83
2024/01/17 04:36:43;;;;;;;10.77;4.77;;;;;;;;;;4953443;28;20077;-83
2024/01/17 04:39:09;;;;;;;12.20;5.00;;;;;;;;;;4917565;28;20546;-83
2024/01/17 04:41:36;;;;;;;12.43;5.30;;;;;;;;;;4944533;28;20031;-83
2024/01/17 04:44:02;;;;;;;11.43;4.90;;;;;;;;;;4929992;29;20055;-83
2024/01/17 04:46:28;;;;;;;9.97;4.60;;;;;;;;;;4938439;29;20034;-83
2024/01/17 04:48:53;;;;;;;10.53;4.90;;;;;;;;;;4955713;29;20046;-83
2024/01/17 04:51:22;;;;;;;11.47;5.00;;;;;;;;;;4953317;28;20046;-83
2024/01/17 04:53:48;;;;;;;;;;;;;;;;;;4955737;28;20031;-83
2024/01/17 04:56:15;;;;;;;10.40;4.33;;;;;;;;;;4928995;29;20293;-83
2024/01/17 04:58:41;;;;;;;11.97;5.20;;;;;;;;;;4937350;28;20046;-82
2024/01/17 05:01:08;;;;;;;10.40;3.90;;;;;;;;;;4945599;28;20377;-83
2024/01/17 05:03:34;;;;;;;12.67;4.97;;;;;;;;;;4922967;28;20039;-83
2024/01/17 05:06:00;;;;;;;10.17;4.83;;;;;;;;;;4937092;29;20027;-82
2024/01/17 05:08:26;;;;;;;14.57;5.10;;;;;;;;;;4936582;29;20117;-82
2024/01/17 05:10:52;;;;;;;12.33;4.30;;;;;;;;;;4945219;28;20061;-82
2024/01/17 05:13:18;;;;;;;11.80;4.90;;;;;;;;;;4945061;28;20058;-83
2024/01/17 05:15:44;;;;;;;11.47;4.80;;;;;;;;;;4926903;29;20035;-82
2024/01/17 05:18:10;;;;;;;9.87;5.20;;;;;;;;;;4946010;29;20003;-83
2024/01/17 05:20:35;;;;;;;11.33;4.80;;;;;;;;;;4923497;28;20036;-82
2024/01/17 05:23:01;;;;;;;12.27;5.30;;;;;;;;;;4919700;29;20495;-82
2024/01/17 05:25:28;;;;;;;12.13;5.47;;;;;;;;;;4933701;29;20046;-83
2024/01/17 05:27:53;;;;;;;16.20;5.40;;;;;;;;;;4945178;28;20084;-83
2024/01/17 05:30:20;;;;;;;18.37;6.50;;;;;;;;;;4947998;28;20039;-83
2024/01/17 05:32:46;;;;;;;13.33;5.97;;;;;;;;;;4944735;28;20055;-83
2024/01/17 05:35:12;;;;;;;15.67;5.33;;;;;;;;;;4965332;28;20066;-83
2024/01/17 05:37:41;;;;;;;12.97;4.87;;;;;;;;;;4960087;28;20034;-83
2024/01/17 05:40:08;;;;;;;16.07;5.70;;;;;;;;;;4920779;29;20039;-83
2024/01/17 05:42:34;;;;;;;12.67;5.00;;;;;;;;;;4941071;28;20038;-83
2024/01/17 05:45:00;;;;;;;13.73;5.63;;;;;;;;;;4917603;29;20083;-83
2024/01/17 05:47:26;;;;;;;12.70;5.60;;;;;;;;;;4954870;28;20054;-83
2024/01/17 05:49:52;;;;;;;16.80;6.17;;;;;;;;;;4949348;28;20047;-83
2024/01/17 05:52:17;;;;;;;13.77;5.60;;;;;;;;;;4946893;28;20031;-83
2024/01/17 05:54:43;;;;;;;12.90;5.17;;;;;;;;;;4935151;28;20058;-83
2024/01/17 05:57:09;;;;;;;18.07;6.87;;;;;;;;;;4927891;28;20026;-83
2024/01/17 05:59:36;;;;;;;14.30;6.20;;;;;;;;;;4931387;28;20058;-83
2024/01/17 06:02:01;;;;;;;19.37;6.17;;;;;;;;;;4934257;28;20034;-83
2024/01/17 06:04:28;;;;;;;12.10;5.07;;;;;;;;;;4927930;29;20050;-83
2024/01/17 06:06:54;;;;;;;16.07;5.10;;;;;;;;;;4940068;29;20039;-83
2024/01/17 06:09:20;;;;;;;13.67;5.40;;;;;;;;;;4937837;28;20581;-83
2024/01/17 06:11:46;;;;;;;12.33;5.70;;;;;;;;;;4930207;29;20037;-83
2024/01/17 06:14:12;;;;;;;18.77;6.13;;;;;;;;;;4948456;28;20031;-83
2024/01/17 06:16:38;;;;;;;11.47;5.73;;;;;;;;;;4934597;28;20081;-83
2024/01/17 06:19:05;;;;;;;16.37;5.77;;;;;;;;;;4958905;29;20023;-83
2024/01/17 06:21:30;;;;;;;16.73;5.83;;;;;;;;;;4943414;29;20043;-83
2024/01/17 06:23:56;;;;;;;14.43;6.07;;;;;;;;;;4931282;28;20035;-82
2024/01/17 06:26:22;;;;;;;15.30;5.73;;;;;;;;;;4940423;29;20046;-83
2024/01/17 06:28:47;;;;;;;12.57;5.40;;;;;;;;;;4926925;29;20036;-83
2024/01/17 06:31:24;;;;;;;10.77;5.40;;;;;;;;;;4937877;28;20034;-83
2024/01/17 06:33:54;;;;;;;18.97;5.97;;;;;;;;;;4945258;29;20051;-83
2024/01/17 06:36:19;;;;;;;14.90;6.47;;;;;;;;;;4924252;28;20405;-83
2024/01/17 06:38:45;;;;;;;11.63;6.10;;;;;;;;;;4943566;28;20114;-83
2024/01/17 06:41:11;;;;;;;14.47;6.23;;;;;;;;;;4932634;29;20383;-83
2024/01/17 06:43:37;;;;;;;13.77;6.20;;;;;;;;;;4941778;28;20267;-83
2024/01/17 06:46:03;;;;;;;19.33;6.30;;;;;;;;;;4926223;29;20042;-83
2024/01/17 06:48:29;;;;;;;15.20;6.27;;;;;;;;;;4920563;28;20459;-83
2024/01/17 06:50:55;;;;;;;11.70;5.03;;;;;;;;;;4941804;29;20031;-83
2024/01/17 06:53:22;;;;;;;13.00;5.27;;;;;;;;;;4945134;28;20045;-83
2024/01/17 06:55:48;;;;;;;11.67;5.77;;;;;;;;;;4928330;28;20094;-83
2024/01/17 06:58:14;;;;;;;10.97;5.33;;;;;;;;;;4910455;29;20027;-83
2024/01/17 07:00:40;;;;;;;12.13;5.43;;;;;;;;;;4930693;28;20035;-83
2024/01/17 07:03:06;;;;;;;23.37;5.27;;;;;;;;;;4933765;29;20434;-82
2024/01/17 07:05:32;;;;;;;13.83;5.60;;;;;;;;;;4941037;28;20023;-82
2024/01/17 07:07:58;;;;;;;16.40;5.70;;;;;;;;;;4916804;29;20099;-83
2024/01/17 07:10:25;;;;;;;14.93;5.90;;;;;;;;;;4945101;29;20094;-83
2024/01/17 07:12:53;;;;;;;13.03;6.10;;;;;;;;;;4929382;29;20031;-83
2024/01/17 07:15:19;;;;;;;9.55;4.75;;;;;;;;;;4943549;28;20055;-83
2024/01/17 07:17:45;;;;;;;14.87;5.80;;;;;;;;;;4961596;28;20494;-83
2024/01/17 07:20:11;;;;;;;12.70;5.63;;;;;;;;;;4927878;29;20081;-83
2024/01/17 07:22:44;;;;;;;12.27;5.43;;;;;;;;;;4949015;28;20034;-83
2024/01/17 07:25:11;;;;;;;15.00;5.40;;;;;;;;;;4936083;28;20033;-83
2024/01/17 07:27:40;;;;;;;12.00;4.67;;;;;;;;;;4933177;28;20031;-83
2024/01/17 07:30:06;;;;;;;12.00;5.37;;;;;;;;;;4930327;29;20045;-83
2024/01/17 07:32:32;;;;;;;11.20;4.60;;;;;;;;;;4976092;28;20414;-83
2024/01/17 07:34:58;;;;;;;10.03;4.60;;;;;;;;;;4931744;29;20052;-83
2024/01/17 07:37:24;;;;;;;11.35;5.10;;;;;;;;;;4942910;28;20127;-83
2024/01/17 07:39:50;;;;;;;11.30;4.73;;;;;;;;;;4946840;28;20445;-83
2024/01/17 07:42:18;;;;;;;12.70;6.10;;;;;;;;;;4933460;28;20039;-82
2024/01/17 07:44:47;;;;;;;11.38;5.22;;;;;;;;;;4926123;29;20042;-83
2024/01/17 07:47:13;;;;;;;15.30;5.15;;;;;;;;;;4918713;29;20134;-83
2024/01/17 07:49:39;;;;;;;11.65;5.32;;;;;;;;;;4945217;29;20042;-83
2024/01/17 07:52:05;;;;;;;13.50;5.03;;;;;;;;;;4922056;29;20031;-83
2024/01/17 07:54:34;;;;;;;12.07;5.25;;;;;;;;;;4951619;29;20086;-83
2024/01/17 07:57:00;;;;;;;;;;;;;;;;;;4944319;28;20031;-83
2024/01/17 07:59:27;;;;;;;11.88;4.50;;;;;;;;;;4946551;28;19988;-83
2024/01/17 08:01:54;;;;;;;14.43;4.72;;;;;;;;;;4935646;28;20035;-84
2024/01/17 08:04:20;;;;;;;11.95;4.55;;;;;;;;;;4927991;28;20063;-83
2024/01/17 08:06:46;;;;;;;10.60;4.88;;;;;;;;;;4959071;29;20103;-83
2024/01/17 08:09:21;;;;;;;12.10;4.53;;;;;;;;;;4929553;29;20541;-83
2024/01/17 08:11:51;;;;;;;13.82;4.72;;;;;;;;;;4934439;29;20232;-83
2024/01/17 08:14:17;;;;;;;13.63;5.50;;;;;;;;;;4937708;28;20031;-82
2024/01/17 08:16:43;;;;;;;9.57;4.00;;;;;;;;;;4948776;28;20058;-83
2024/01/17 08:19:09;;;;;;;11.15;4.85;;;;;;;;;;4934592;29;20035;-83
2024/01/17 08:21:35;;;;;;;12.97;4.97;;;;;;;;;;4931711;29;20047;-83
2024/01/17 08:24:00;;;;;;;9.73;4.80;;;;;;;;;;4937980;29;20047;-83
2024/01/17 08:26:26;;;;;;;15.70;4.73;;;;;;;;;;4935221;29;20035;-83
2024/01/17 08:28:56;;;;;;;13.00;4.95;;;;;;;;;;4945620;28;20030;-83
2024/01/17 08:31:22;;;;;;;9.95;4.63;;;;;;;;;;4949657;28;20030;-83
2024/01/17 08:33:49;;;;;;;11.07;4.30;;;;;;;;;;4938463;28;20094;-83
2024/01/17 08:36:16;;;;;;;12.17;4.73;;;;;;;;;;4936055;29;20038;-83
2024/01/17 08:38:42;;;;;;;14.07;4.00;;;;;;;;;;4926343;29;20094;-82
2024/01/17 08:41:11;;;;;;;14.33;6.00;;;;;;;;;;4932350;29;20071;-83
2024/01/17 08:43:37;;;;;;;12.07;4.97;;;;;;;;;;4947661;29;20058;-83
2024/01/17 08:46:03;;;;;;;14.27;5.17;;;;;;;;;;4917201;28;20038;-83
2024/01/17 08:48:29;;;;;;;11.33;5.03;;;;;;;;;;4916685;29;20039;-83
2024/01/17 08:50:55;;;;;;;11.97;5.03;;;;;;;;;;4947600;29;20487;-83
2024/01/17 08:53:21;;;;;;;10.23;4.50;;;;;;;;;;4931417;29;20059;-83
2024/01/17 08:55:47;;;;;;;11.40;4.77;;;;;;;;;;4927220;28;20028;-83
2024/01/17 08:58:13;;;;;;;13.27;4.60;;;;;;;;;;4939544;28;20053;-82
2024/01/17 09:00:39;;;;;;;9.40;3.90;;;;;;;;;;4935228;28;20557;-83
2024/01/17 09:03:05;;;;;;;9.25;4.60;;;;;;;;;;4923613;29;20479;-81
2024/01/17 09:05:31;;;;;;;11.03;4.60;;;;;;;;;;4933749;29;20041;-83
2024/01/17 09:07:58;;;;;;;12.10;4.60;;;;;;;;;;4936576;29;20079;-83
2024/01/17 09:10:24;;;;;;;18.88;5.22;;;;;;;;;;4921289;29;20102;-83
2024/01/17 09:12:50;;;;;;;15.30;5.03;;;;;;;;;;4941065;29;20047;-83
2024/01/17 09:15:16;;;;;;;12.45;4.60;;;;;;;;;;4940815;29;20027;-83
2024/01/17 09:17:42;;;;;;;13.15;4.65;;;;;;;;;;4959161;29;20034;-83
2024/01/17 09:20:08;;;;;;;11.80;4.88;;;;;;;;;;4926817;29;20073;-83
2024/01/17 09:22:33;;;;;;;11.75;4.70;;;;;;;;;;4939286;29;20027;-83
2024/01/17 09:25:02;;;;;;;16.15;4.88;;;;;;;;;;4977247;29;20038;-83
2024/01/17 09:27:28;;;;;;;11.73;5.15;;;;;;;;;;4945890;29;20047;-83
2024/01/17 09:29:56;;;;;;;12.82;5.55;;;;;;;;;;4929389;29;20019;-83
2024/01/17 09:32:22;;;;;;;14.10;5.50;;;;;;;;;;4936872;29;20035;-83
2024/01/17 09:34:48;;;;;;;13.30;4.75;;;;;;;;;;4958834;29;20027;-83
2024/01/17 09:37:17;;;;;;;9.80;4.72;;;;;;;;;;4968130;29;20051;-83
2024/01/17 09:39:43;;;;;;;23.67;4.50;;;;;;;;;;4943500;29;20010;-83
2024/01/17 09:42:10;;;;;;;12.38;4.78;;;;;;;;;;4956010;29;20031;-83
2024/01/17 09:44:36;;;;;;;15.85;5.03;;;;;;;;;;4952786;29;20042;-83
2024/01/17 09:47:03;;;;;;;11.98;5.18;;;;;;;;;;4930003;29;20035;-83
2024/01/17 09:49:29;;;;;;;21.45;5.60;;;;;;;;;;4910946;29;20090;-83
2024/01/17 09:51:55;;;;;;;13.18;5.25;;;;;;;;;;4915939;29;20403;-83
2024/01/17 09:54:25;;;;;;;11.32;4.45;;;;;;;;;;4929660;29;20027;-83
2024/01/17 09:56:51;;;;;;;14.05;4.80;;;;;;;;;;4930014;29;20175;-83
2024/01/17 09:59:21;;;;;;;11.20;4.63;;;;;;;;;;4930400;29;20395;-82
2024/01/17 10:01:47;;;;;;;18.30;5.25;;;;;;;;;;4930913;29;20041;-83
2024/01/17 10:04:13;;;;;;;11.90;4.90;;;;;;;;;;4920180;29;20106;-83
2024/01/17 10:06:40;;;;;;;10.52;4.45;;;;;;;;;;4940197;29;20043;-83
2024/01/17 10:09:07;;;;;;;15.18;5.10;;;;;;;;;;4954920;29;20059;-83
2024/01/17 10:11:33;;;;;;;12.77;4.80;;;;;;;;;;4936986;29;20043;-83
2024/01/17 10:13:59;;;;;;;9.70;4.32;;;;;;;;;;4929576;29;20039;-83
2024/01/17 10:16:25;;;;;;;11.43;4.80;;;;;;;;;;4944590;29;20042;-83
2024/01/17 10:18:51;;;;;;;136.82;35.63;;;;;;;;;;4930081;29;20031;-83
2024/01/17 10:21:17;;;;;;;15.10;7.97;;;;;;;;;;4929903;29;20069;-83
2024/01/17 10:23:43;;;;;;;19.02;6.13;;;;;;;;;;4922004;29;20324;-83
2024/01/17 10:26:10;;;;;;;14.95;5.40;;;;;;;;;;4912308;29;20384;-83
2024/01/17 10:28:41;;;;;;;11.57;5.60;;;;;;;;;;4909444;29;20682;-83
2024/01/17 10:31:10;;;;;;;23.05;6.00;;;;;;;;;;4927491;29;20529;-83
2024/01/17 10:33:36;;;;;;;9.50;3.97;;;;;;;;;;4959194;29;20107;-83
2024/01/17 10:36:03;;;;;;;11.20;5.15;;;;;;;;;;4911089;29;20031;-83
2024/01/17 10:38:31;;;;;;;9.95;4.35;;;;;;;;;;4926698;29;20027;-83
2024/01/17 10:41:05;;;;;;;20.73;5.47;;;;;;;;;;4912924;29;20042;-83
2024/01/17 10:43:32;;;;;;;10.63;4.88;;;;;;;;;;4944061;29;20087;-83
2024/01/17 10:46:05;;;;;;;9.85;5.10;;;;;;;;;;4947870;29;20035;-84
2024/01/17 10:48:30;;;;;;;9.70;4.45;;;;;;;;;;4929584;29;20035;-82
2024/01/17 10:51:00;;;;;;;20.08;5.30;;;;;;;;;;4915485;29;20038;-83
2024/01/17 10:53:26;;;;;;;11.15;5.00;;;;;;;;;;4922177;29;20376;-84
2024/01/17 10:55:54;;;;;;;11.85;4.70;;;;;;;;;;4932392;29;20511;-83
2024/01/17 10:58:20;;;;;;;13.43;4.65;;;;;;;;;;4959085;29;20515;-83
2024/01/17 11:00:48;;;;;;;21.95;5.75;;;;;;;;;;4915572;29;20031;-83
2024/01/17 11:03:18;;;;;;;19.67;5.97;;;;;;;;;;4925037;29;20194;-84
2024/01/17 11:05:46;;;;;;;29.75;6.53;;;;;;;;;;4906444;29;20039;-83
2024/01/17 11:08:14;;;;;;;26.25;5.15;;;;;;;;;;4912963;29;20454;-84
2024/01/17 11:10:43;;;;;;;23.80;5.30;;;;;;;;;;4909245;29;20035;-82
2024/01/17 11:13:10;;;;;;;14.27;6.47;;;;;;;;;;4945355;29;20104;-82
2024/01/17 11:15:37;;;;;;;13.20;4.78;;;;;;;;;;4925253;29;20035;-83
2024/01/17 11:18:04;;;;;;;16.52;5.07;;;;;;;;;;4911614;29;20613;-82
2024/01/17 11:20:30;;;;;;;14.05;5.28;;;;;;;;;;4911147;29;20079;-82
2024/01/17 11:22:57;;;;;;;14.38;5.20;;;;;;;;;;4930054;28;20042;-84
2024/01/17 11:25:36;;;;;;;11.07;5.20;;;;;;;;;;4909290;29;20434;-83
2024/01/17 11:28:20;;;;;;;484.98;184.70;;;;;;;;;;4923346;29;20402;-83
2024/01/17 11:30:49;;;;;;;25.20;15.10;;;;;;;;;;4930546;29;20031;-84
2024/01/17 11:33:16;;;;;;;12.32;5.50;;;;;;;;;;4930722;29;20038;-84
2024/01/17 11:35:42;;;;;;;19.92;6.55;;;;;;;;;;4914657;29;20099;-84
2024/01/17 11:38:11;;;;;;;;;;;;;;;;;;4912439;29;20104;-84
2024/01/17 11:40:40;;;;;;;13.45;4.70;;;;;;;;;;4928097;29;19914;-84
2024/01/17 11:43:07;;;;;;;11.73;4.50;;;;;;;;;;4929322;29;20039;-84
2024/01/17 11:45:33;;;;;;;9.77;4.35;;;;;;;;;;4942948;29;20777;-84
2024/01/17 11:48:20;;;;;;;11.50;4.53;;;;;;;;;;4928105;29;20066;-83
2024/01/17 11:51:21;;;;;;;10.40;4.80;;;;;;;;;;4909177;29;20031;-84
2024/01/17 11:53:50;;;;;;;10.45;4.07;;;;;;;;;;4896746;29;20183;-84
2024/01/17 11:56:20;;;;;;;13.23;4.20;;;;;;;;;;4941901;29;20030;-84
2024/01/17 11:58:46;;;;;;;13.57;4.75;;;;;;;;;;4933945;28;20102;-83
2024/01/17 12:01:22;;;;;;;12.15;5.50;;;;;;;;;;4939995;29;20498;-84
2024/01/17 12:03:51;;;;;;;15.85;5.22;;;;;;;;;;4937674;29;20039;-84
2024/01/17 12:06:17;;;;;;;13.98;4.60;;;;;;;;;;4935116;29;20099;-83
2024/01/17 12:08:43;;;;;;;11.93;4.55;;;;;;;;;;4940362;29;20034;-83
2024/01/17 12:11:09;;;;;;;11.55;4.60;;;;;;;;;;4938842;29;20069;-84
2024/01/17 12:13:38;;;;;;;14.05;5.13;;;;;;;;;;4936096;29;20272;-84
2024/01/17 12:16:06;;;;;;;19.05;6.20;;;;;;;;;;4925939;28;20035;-84
2024/01/17 12:18:33;;;;;;;10.20;5.10;;;;;;;;;;4934562;29;20376;-84
2024/01/17 12:21:02;;;;;;;20.63;4.70;;;;;;;;;;4922528;29;20062;-84
2024/01/17 12:23:32;;;;;;;11.07;4.53;;;;;;;;;;4937359;29;20038;-84
2024/01/17 12:25:59;;;;;;;127.90;51.40;;;;;;;;;;4937684;29;20023;-84
2024/01/17 12:28:28;;;;;;;26.00;13.23;;;;;;;;;;4922869;29;20114;-84
2024/01/17 12:31:06;;;;;;;12.95;5.60;;;;;;;;;;4928407;29;20042;-84
2024/01/17 12:33:36;;;;;;;15.48;4.88;;;;;;;;;;4924573;29;20055;-84
2024/01/17 12:36:05;;;;;;;13.25;5.32;;;;;;;;;;4927677;29;20042;-84
2024/01/17 12:38:32;;;;;;;13.05;5.10;;;;;;;;;;4943889;29;20035;-84
2024/01/17 12:40:59;;;;;;;13.38;4.63;;;;;;;;;;4923817;29;20035;-84
2024/01/17 12:43:27;;;;;;;18.40;5.22;;;;;;;;;;4921319;29;20039;-83
2024/01/17 12:45:53;;;;;;;13.18;5.43;;;;;;;;;;4929616;29;20085;-84
2024/01/17 12:48:19;;;;;;;27.73;7.63;;;;;;;;;;4930410;29;20119;-83
2024/01/17 12:50:46;;;;;;;12.38;4.75;;;;;;;;;;4943644;29;20039;-84
2024/01/17 12:53:12;;;;;;;13.88;5.10;;;;;;;;;;4931019;29;20390;-84
2024/01/17 12:55:39;;;;;;;12.82;5.90;;;;;;;;;;4928300;29;20040;-84
2024/01/17 12:58:05;;;;;;;11.80;5.90;;;;;;;;;;4917348;29;20492;-84
2024/01/17 13:00:31;;;;;;;11.38;4.55;;;;;;;;;;4931408;29;20039;-84
2024/01/17 13:02:57;;;;;;;14.15;5.40;;;;;;;;;;4930910;29;20027;-83
2024/01/17 13:05:23;;;;;;;14.38;5.30;;;;;;;;;;4929549;29;20035;-84
2024/01/17 13:07:50;;;;;;;12.93;5.28;;;;;;;;;;4935600;23;20563;-81
2024/01/17 13:10:19;;;;;;;10.63;4.53;;;;;;;;;;4926120;29;20130;-81
2024/01/17 13:12:47;;;;;;;17.10;4.65;;;;;;;;;;4919985;29;20036;-81
2024/01/17 13:15:13;;;;;;;14.43;4.50;;;;;;;;;;4912964;29;20122;-81
2024/01/17 13:17:45;;;;;;;13.82;4.50;;;;;;;;;;4904486;29;20100;-82
2024/01/17 13:20:15;;;;;;;13.18;5.07;;;;;;;;;;4888014;29;20052;-81
2024/01/17 13:22:41;;;;;;;15.90;4.90;;;;;;;;;;4891430;29;20040;-81
2024/01/17 13:25:07;;;;;;;11.13;5.28;;;;;;;;;;4922457;29;20087;-81
2024/01/17 13:27:32;;;;;;;10.50;4.80;;;;;;;;;;4906452;29;20040;-81
2024/01/17 13:29:59;;;;;;;13.45;4.85;;;;;;;;;;4907886;29;20602;-81
2024/01/17 13:32:25;;;;;;;9.85;4.55;;;;;;;;;;4907850;29;20031;-81
2024/01/17 13:34:51;;;;;;;9.63;4.43;;;;;;;;;;4907360;29;20084;-81
2024/01/17 13:37:18;;;;;;;12.60;5.18;;;;;;;;;;4922531;29;20016;-81
2024/01/17 13:39:44;;;;;;;11.02;4.35;;;;;;;;;;4918448;29;20032;-81
2024/01/17 13:42:12;;;;;;;11.88;4.97;;;;;;;;;;4921377;29;20035;-81
2024/01/17 13:44:38;;;;;;;15.05;5.53;;;;;;;;;;4887507;29;20055;-81
2024/01/17 13:47:04;;;;;;;11.93;5.47;;;;;;;;;;4904955;29;20031;-81
2024/01/17 13:49:30;;;;;;;13.23;5.43;;;;;;;;;;4923382;29;20044;-82
2024/01/17 13:51:57;;;;;;;10.68;5.25;;;;;;;;;;4892842;29;20050;-81
2024/01/17 13:54:22;;;;;;;15.00;5.63;;;;;;;;;;4891701;29;20028;-81
2024/01/17 13:56:48;;;;;;;14.50;5.15;;;;;;;;;;4910165;29;20039;-81
2024/01/17 13:59:15;;;;;;;12.10;5.47;;;;;;;;;;4888757;29;20040;-80
2024/01/17 14:01:41;;;;;;;11.80;5.15;;;;;;;;;;4907768;29;20091;-80
2024/01/17 14:04:06;;;;;;;13.45;5.28;;;;;;;;;;4912470;29;20035;-81
2024/01/17 14:06:32;;;;;;;10.98;4.70;;;;;;;;;;4930088;29;20036;-81
2024/01/17 14:08:58;;;;;;;10.40;4.55;;;;;;;;;;4908029;29;20062;-80
2024/01/17 14:11:23;;;;;;;10.45;5.05;;;;;;;;;;4912176;29;20117;-80
2024/01/17 14:13:50;;;;;;;15.25;5.30;;;;;;;;;;4902229;29;20040;-80
2024/01/17 14:16:19;;;;;;;14.57;5.13;;;;;;;;;;4952790;29;20027;-80
2024/01/17 14:18:45;;;;;;;13.30;5.15;;;;;;;;;;4913746;29;20043;-80
2024/01/17 14:21:11;;;;;;;9.25;4.38;;;;;;;;;;4911694;29;20044;-81
2024/01/17 14:23:38;;;;;;;10.73;5.90;;;;;;;;;;4893645;29;20031;-82
2024/01/17 14:26:04;;;;;;;14.20;5.72;;;;;;;;;;4909926;29;20047;-80
2024/01/17 14:28:30;;;;;;;28.63;11.18;;;;;;;;;;4923579;29;20031;-80